sensor_id;sensor_type;location;lat;lon;timestamp;pressure;altitude;pressure_sealevel;temperature;humidity
6532;BME280;3299;42.004;24.868;2023-08-17T00:00:16;98222.00;;;23.19;67.78
6532;BME280;3299;42.004;24.868;2023-08-17T00:02:43;98188.78;;;23.10;67.66
6532;BME280;3299;42.004;24.868;2023-08-17T00:05:09;98228.41;;;23.31;67.98
6532;BME280;3299;42.004;24.868;2023-08-17T00:07:35;98216.81;;;23.11;67.63
6532;BME280;3299;42.004;24.868;2023-08-17T00:10:01;98206.16;;;23.05;69.94
6532;BME280;3299;42.004;24.868;2023-08-17T00:12:28;98230.00;;;23.11;69.38
6532;BME280;3299;42.004;24.868;2023-08-17T00:14:53;98204.09;;;23.00;69.43
6532;BME280;3299;42.004;24.868;2023-08-17T00:17:19;98189.78;;;22.88;68.01
6532;BME280;3299;42.004;24.868;2023-08-17T00:19:45;98193.25;;;22.89;67.40
6532;BME280;3299;42.004;24.868;2023-08-17T00:22:10;98217.53;;;22.84;68.03
6532;BME280;3299;42.004;24.868;2023-08-17T00:24:36;98219.63;;;22.89;67.82
6532;BME280;3299;42.004;24.868;2023-08-17T00:27:02;98193.81;;;22.70;68.66
6532;BME280;3299;42.004;24.868;2023-08-17T00:29:28;98217.59;;;22.91;68.29
6532;BME280;3299;42.004;24.868;2023-08-17T00:31:54;98201.91;;;22.68;68.64
6532;BME280;3299;42.004;24.868;2023-08-17T00:34:19;98198.22;;;22.63;68.84
6532;BME280;3299;42.004;24.868;2023-08-17T00:36:44;98178.22;;;22.54;69.01
6532;BME280;3299;42.004;24.868;2023-08-17T00:39:10;98210.94;;;22.74;69.04
6532;BME280;3299;42.004;24.868;2023-08-17T00:41:35;98202.31;;;22.65;69.13
6532;BME280;3299;42.004;24.868;2023-08-17T00:44:01;98203.13;;;22.66;69.57
6532;BME280;3299;42.004;24.868;2023-08-17T00:46:26;98181.97;;;22.45;69.74
6532;BME280;3299;42.004;24.868;2023-08-17T00:48:53;98222.56;;;22.65;68.97
6532;BME280;3299;42.004;24.868;2023-08-17T00:51:22;98179.34;;;22.45;69.30
6532;BME280;3299;42.004;24.868;2023-08-17T00:53:50;98200.13;;;22.54;70.79
6532;BME280;3299;42.004;24.868;2023-08-17T00:56:16;98173.88;;;22.32;70.95
6532;BME280;3299;42.004;24.868;2023-08-17T00:58:42;98186.06;;;22.33;70.44
6532;BME280;3299;42.004;24.868;2023-08-17T01:01:08;98169.78;;;22.29;71.03
6532;BME280;3299;42.004;24.868;2023-08-17T01:03:34;98195.34;;;22.43;71.74
6532;BME280;3299;42.004;24.868;2023-08-17T01:05:59;98184.78;;;22.43;71.41
6532;BME280;3299;42.004;24.868;2023-08-17T01:08:28;98199.41;;;22.46;70.18
6532;BME280;3299;42.004;24.868;2023-08-17T01:13:53;98180.25;;;22.23;71.58
6532;BME280;3299;42.004;24.868;2023-08-17T01:16:42;98182.06;;;22.22;71.70
6532;BME280;3299;42.004;24.868;2023-08-17T01:19:12;98195.69;;;22.26;71.58
6532;BME280;3299;42.004;24.868;2023-08-17T01:21:44;98176.06;;;22.28;71.13
6532;BME280;3299;42.004;24.868;2023-08-17T01:24:14;98170.78;;;22.28;71.11
6532;BME280;3299;42.004;24.868;2023-08-17T01:26:39;98163.53;;;22.16;71.21
6532;BME280;3299;42.004;24.868;2023-08-17T01:29:04;98174.69;;;22.18;70.14
6532;BME280;3299;42.004;24.868;2023-08-17T01:31:32;98191.44;;;22.25;70.65
6532;BME280;3299;42.004;24.868;2023-08-17T01:34:05;98176.34;;;22.04;68.24
6532;BME280;3299;42.004;24.868;2023-08-17T01:36:37;98173.44;;;21.99;67.19
6532;BME280;3299;42.004;24.868;2023-08-17T01:39:03;98192.81;;;22.06;68.21
6532;BME280;3299;42.004;24.868;2023-08-17T01:41:30;98211.41;;;22.19;67.18
6532;BME280;3299;42.004;24.868;2023-08-17T01:43:57;98209.22;;;22.23;66.80
6532;BME280;3299;42.004;24.868;2023-08-17T01:46:27;98200.44;;;22.16;67.84
6532;BME280;3299;42.004;24.868;2023-08-17T01:48:53;98189.34;;;22.06;66.83
6532;BME280;3299;42.004;24.868;2023-08-17T01:51:20;98201.25;;;22.16;66.01
6532;BME280;3299;42.004;24.868;2023-08-17T01:53:46;98218.41;;;22.27;65.94
6532;BME280;3299;42.004;24.868;2023-08-17T01:56:11;98190.22;;;22.13;65.78
6532;BME280;3299;42.004;24.868;2023-08-17T01:58:36;98217.25;;;22.29;66.60
6532;BME280;3299;42.004;24.868;2023-08-17T02:01:02;98219.03;;;22.29;67.33
6532;BME280;3299;42.004;24.868;2023-08-17T02:03:27;98191.06;;;21.99;67.70
6532;BME280;3299;42.004;24.868;2023-08-17T02:05:56;98197.06;;;21.93;67.38
6532;BME280;3299;42.004;24.868;2023-08-17T02:08:22;98212.44;;;22.04;67.39
6532;BME280;3299;42.004;24.868;2023-08-17T02:10:47;98208.59;;;22.06;66.39
6532;BME280;3299;42.004;24.868;2023-08-17T02:13:13;98180.91;;;21.96;66.88
6532;BME280;3299;42.004;24.868;2023-08-17T02:15:39;98200.72;;;22.06;67.97
6532;BME280;3299;42.004;24.868;2023-08-17T02:18:05;98171.78;;;21.98;68.14
6532;BME280;3299;42.004;24.868;2023-08-17T02:20:30;98193.88;;;22.12;68.42
6532;BME280;3299;42.004;24.868;2023-08-17T02:22:56;98173.34;;;21.93;69.03
6532;BME280;3299;42.004;24.868;2023-08-17T02:25:21;98185.53;;;21.94;67.34
6532;BME280;3299;42.004;24.868;2023-08-17T02:27:46;98154.78;;;21.72;67.90
6532;BME280;3299;42.004;24.868;2023-08-17T02:30:12;98179.16;;;21.88;69.15
6532;BME280;3299;42.004;24.868;2023-08-17T02:32:38;98182.59;;;21.89;69.23
6532;BME280;3299;42.004;24.868;2023-08-17T02:35:04;98197.69;;;21.95;69.70
6532;BME280;3299;42.004;24.868;2023-08-17T02:37:29;98184.63;;;21.87;70.25
6532;BME280;3299;42.004;24.868;2023-08-17T02:39:55;98168.63;;;21.74;69.77
6532;BME280;3299;42.004;24.868;2023-08-17T02:42:20;98205.50;;;21.74;71.41
6532;BME280;3299;42.004;24.868;2023-08-17T02:44:46;98165.81;;;21.53;71.02
6532;BME280;3299;42.004;24.868;2023-08-17T02:47:11;98187.91;;;21.66;70.63
6532;BME280;3299;42.004;24.868;2023-08-17T02:49:36;98180.91;;;21.59;69.65
6532;BME280;3299;42.004;24.868;2023-08-17T02:52:02;98186.19;;;21.59;70.71
6532;BME280;3299;42.004;24.868;2023-08-17T02:54:27;98163.28;;;21.45;70.42
6532;BME280;3299;42.004;24.868;2023-08-17T02:56:53;98193.06;;;21.68;71.08
6532;BME280;3299;42.004;24.868;2023-08-17T02:59:18;98173.72;;;21.53;72.08
6532;BME280;3299;42.004;24.868;2023-08-17T03:01:45;98161.00;;;21.42;72.56
6532;BME280;3299;42.004;24.868;2023-08-17T03:04:10;98199.34;;;21.59;70.72
6532;BME280;3299;42.004;24.868;2023-08-17T03:06:36;98170.53;;;21.43;71.09
6532;BME280;3299;42.004;24.868;2023-08-17T03:09:01;98183.69;;;21.43;71.15
6532;BME280;3299;42.004;24.868;2023-08-17T03:11:27;98174.28;;;21.26;71.83
6532;BME280;3299;42.004;24.868;2023-08-17T03:13:52;98182.94;;;21.34;71.91
6532;BME280;3299;42.004;24.868;2023-08-17T03:16:20;98167.78;;;21.22;71.92
6532;BME280;3299;42.004;24.868;2023-08-17T03:18:46;98187.50;;;21.40;72.10
6532;BME280;3299;42.004;24.868;2023-08-17T03:21:13;98164.56;;;21.12;72.59
6532;BME280;3299;42.004;24.868;2023-08-17T03:23:40;98158.69;;;21.02;73.03
6532;BME280;3299;42.004;24.868;2023-08-17T03:26:05;98190.44;;;21.23;73.14
6532;BME280;3299;42.004;24.868;2023-08-17T03:28:31;98187.19;;;21.21;72.77
6532;BME280;3299;42.004;24.868;2023-08-17T03:30:56;98181.56;;;21.24;72.13
6532;BME280;3299;42.004;24.868;2023-08-17T03:33:22;98202.72;;;21.30;72.31
6532;BME280;3299;42.004;24.868;2023-08-17T03:35:47;98175.44;;;21.09;73.02
6532;BME280;3299;42.004;24.868;2023-08-17T03:38:13;98170.22;;;21.01;73.12
6532;BME280;3299;42.004;24.868;2023-08-17T03:40:38;98178.41;;;21.06;74.07
6532;BME280;3299;42.004;24.868;2023-08-17T03:43:04;98192.19;;;21.08;74.91
6532;BME280;3299;42.004;24.868;2023-08-17T03:45:29;98151.25;;;20.83;74.45
6532;BME280;3299;42.004;24.868;2023-08-17T03:47:55;98184.31;;;21.08;73.66
6532;BME280;3299;42.004;24.868;2023-08-17T03:50:21;98187.66;;;21.02;73.48
6532;BME280;3299;42.004;24.868;2023-08-17T03:52:46;98201.69;;;21.17;73.03
6532;BME280;3299;42.004;24.868;2023-08-17T03:55:12;98188.22;;;21.12;73.50
6532;BME280;3299;42.004;24.868;2023-08-17T03:57:37;98174.88;;;20.91;73.52
6532;BME280;3299;42.004;24.868;2023-08-17T04:00:03;98172.94;;;20.85;74.72
6532;BME280;3299;42.004;24.868;2023-08-17T04:02:30;98192.28;;;21.00;75.34
6532;BME280;3299;42.004;24.868;2023-08-17T04:04:55;98177.03;;;20.95;75.27
6532;BME280;3299;42.004;24.868;2023-08-17T04:07:22;98166.91;;;20.76;75.93
6532;BME280;3299;42.004;24.868;2023-08-17T04:09:47;98191.97;;;20.95;75.49
6532;BME280;3299;42.004;24.868;2023-08-17T04:12:13;98157.06;;;20.78;75.37
6532;BME280;3299;42.004;24.868;2023-08-17T04:14:38;98183.91;;;20.96;74.40
6532;BME280;3299;42.004;24.868;2023-08-17T04:17:04;98204.19;;;21.10;75.11
6532;BME280;3299;42.004;24.868;2023-08-17T04:19:29;98171.38;;;20.98;74.37
6532;BME280;3299;42.004;24.868;2023-08-17T04:21:54;98174.63;;;21.08;74.38
6532;BME280;3299;42.004;24.868;2023-08-17T04:24:20;98173.03;;;20.99;74.42
6532;BME280;3299;42.004;24.868;2023-08-17T04:26:45;98155.97;;;20.95;74.77
6532;BME280;3299;42.004;24.868;2023-08-17T04:29:11;98181.47;;;21.17;74.55
6532;BME280;3299;42.004;24.868;2023-08-17T04:31:37;98197.00;;;21.27;73.79
6532;BME280;3299;42.004;24.868;2023-08-17T04:34:02;98185.94;;;21.31;73.57
6532;BME280;3299;42.004;24.868;2023-08-17T04:36:28;98198.03;;;21.40;73.37
6532;BME280;3299;42.004;24.868;2023-08-17T04:38:53;98171.84;;;21.24;73.64
6532;BME280;3299;42.004;24.868;2023-08-17T04:41:19;98175.59;;;21.30;73.13
6532;BME280;3299;42.004;24.868;2023-08-17T04:43:44;98172.31;;;21.28;72.85
6532;BME280;3299;42.004;24.868;2023-08-17T04:46:11;98167.94;;;21.20;73.22
6532;BME280;3299;42.004;24.868;2023-08-17T04:48:37;98190.50;;;21.37;73.03
6532;BME280;3299;42.004;24.868;2023-08-17T04:51:02;98201.97;;;21.59;72.07
6532;BME280;3299;42.004;24.868;2023-08-17T04:53:28;98191.53;;;21.51;72.53
6532;BME280;3299;42.004;24.868;2023-08-17T04:55:53;98211.78;;;21.65;71.86
6532;BME280;3299;42.004;24.868;2023-08-17T04:58:19;98211.22;;;21.77;71.36
6532;BME280;3299;42.004;24.868;2023-08-17T05:00:44;98196.88;;;21.80;70.64
6532;BME280;3299;42.004;24.868;2023-08-17T05:03:10;98184.72;;;21.79;70.17
6532;BME280;3299;42.004;24.868;2023-08-17T05:05:35;98194.78;;;21.90;70.25
6532;BME280;3299;42.004;24.868;2023-08-17T05:08:01;98185.44;;;21.87;70.17
6532;BME280;3299;42.004;24.868;2023-08-17T05:10:26;98206.44;;;22.10;69.75
6532;BME280;3299;42.004;24.868;2023-08-17T05:12:52;98212.59;;;22.17;69.04
6532;BME280;3299;42.004;24.868;2023-08-17T05:15:17;98213.59;;;22.30;68.62
6532;BME280;3299;42.004;24.868;2023-08-17T05:17:43;98211.22;;;22.35;67.93
6532;BME280;3299;42.004;24.868;2023-08-17T05:20:08;98193.69;;;22.28;68.09
6532;BME280;3299;42.004;24.868;2023-08-17T05:22:34;98180.50;;;22.28;67.92
6532;BME280;3299;42.004;24.868;2023-08-17T05:24:59;98215.13;;;22.54;67.22
6532;BME280;3299;42.004;24.868;2023-08-17T05:27:25;98203.88;;;22.60;66.48
6532;BME280;3299;42.004;24.868;2023-08-17T05:29:50;98198.75;;;22.73;65.65
6532;BME280;3299;42.004;24.868;2023-08-17T05:32:15;98204.50;;;22.83;65.44
6532;BME280;3299;42.004;24.868;2023-08-17T05:34:41;98194.47;;;22.72;65.24
6532;BME280;3299;42.004;24.868;2023-08-17T05:37:06;98211.06;;;22.87;65.20
6532;BME280;3299;42.004;24.868;2023-08-17T05:39:32;98219.31;;;22.98;64.45
6532;BME280;3299;42.004;24.868;2023-08-17T05:41:57;98187.31;;;22.87;64.77
6532;BME280;3299;42.004;24.868;2023-08-17T05:44:22;98195.06;;;23.09;63.82
6532;BME280;3299;42.004;24.868;2023-08-17T05:46:48;98174.63;;;22.97;63.70
6532;BME280;3299;42.004;24.868;2023-08-17T05:49:13;98193.00;;;23.26;63.41
6532;BME280;3299;42.004;24.868;2023-08-17T05:51:39;98194.91;;;23.32;63.13
6532;BME280;3299;42.004;24.868;2023-08-17T05:54:04;98208.72;;;23.55;62.57
6532;BME280;3299;42.004;24.868;2023-08-17T05:56:30;98211.78;;;23.58;62.09
6532;BME280;3299;42.004;24.868;2023-08-17T05:58:56;98195.94;;;23.58;61.95
6532;BME280;3299;42.004;24.868;2023-08-17T06:01:21;98184.31;;;23.53;61.51
6532;BME280;3299;42.004;24.868;2023-08-17T06:03:47;98184.34;;;23.59;61.74
6532;BME280;3299;42.004;24.868;2023-08-17T06:06:12;98206.31;;;23.87;60.98
6532;BME280;3299;42.004;24.868;2023-08-17T06:08:38;98213.31;;;23.95;60.71
6532;BME280;3299;42.004;24.868;2023-08-17T06:11:03;98186.97;;;23.86;60.15
6532;BME280;3299;42.004;24.868;2023-08-17T06:13:29;98208.09;;;24.08;59.72
6532;BME280;3299;42.004;24.868;2023-08-17T06:15:56;98176.13;;;24.02;59.12
6532;BME280;3299;42.004;24.868;2023-08-17T06:18:22;98209.00;;;24.27;59.31
6532;BME280;3299;42.004;24.868;2023-08-17T06:20:47;98171.94;;;24.14;58.80
6532;BME280;3299;42.004;24.868;2023-08-17T06:23:15;98174.25;;;24.30;58.21
6532;BME280;3299;42.004;24.868;2023-08-17T06:25:41;98187.38;;;24.51;57.26
6532;BME280;3299;42.004;24.868;2023-08-17T06:28:06;98203.13;;;24.72;57.29
6532;BME280;3299;42.004;24.868;2023-08-17T06:30:32;98201.53;;;24.84;56.33
6532;BME280;3299;42.004;24.868;2023-08-17T06:32:57;98182.00;;;24.85;55.81
6532;BME280;3299;42.004;24.868;2023-08-17T06:35:22;98195.47;;;25.03;55.33
6532;BME280;3299;42.004;24.868;2023-08-17T06:37:48;98180.59;;;24.96;55.12
6532;BME280;3299;42.004;24.868;2023-08-17T06:40:13;98172.25;;;24.99;54.65
6532;BME280;3299;42.004;24.868;2023-08-17T06:42:39;98178.78;;;25.09;55.11
6532;BME280;3299;42.004;24.868;2023-08-17T06:45:06;98215.72;;;25.37;55.03
6532;BME280;3299;42.004;24.868;2023-08-17T06:47:31;98189.03;;;25.32;54.18
6532;BME280;3299;42.004;24.868;2023-08-17T06:49:57;98204.13;;;25.44;54.00
6532;BME280;3299;42.004;24.868;2023-08-17T06:52:23;98206.16;;;25.55;53.98
6532;BME280;3299;42.004;24.868;2023-08-17T06:54:49;98188.22;;;25.57;53.64
6532;BME280;3299;42.004;24.868;2023-08-17T06:57:14;98216.31;;;25.84;53.32
6532;BME280;3299;42.004;24.868;2023-08-17T06:59:40;98186.16;;;25.79;52.84
6532;BME280;3299;42.004;24.868;2023-08-17T07:02:05;98182.47;;;25.86;52.38
6532;BME280;3299;42.004;24.868;2023-08-17T07:04:31;98212.66;;;26.11;52.47
6532;BME280;3299;42.004;24.868;2023-08-17T07:06:57;98207.75;;;26.15;52.22
6532;BME280;3299;42.004;24.868;2023-08-17T07:09:22;98194.69;;;26.13;51.40
6532;BME280;3299;42.004;24.868;2023-08-17T07:11:47;98220.31;;;26.39;52.20
6532;BME280;3299;42.004;24.868;2023-08-17T07:14:13;98198.50;;;26.30;51.38
6532;BME280;3299;42.004;24.868;2023-08-17T07:16:39;98206.41;;;26.56;50.69
6532;BME280;3299;42.004;24.868;2023-08-17T07:19:05;98195.59;;;26.58;50.85
6532;BME280;3299;42.004;24.868;2023-08-17T07:21:30;98197.38;;;26.70;50.63
6532;BME280;3299;42.004;24.868;2023-08-17T07:23:56;98190.78;;;26.79;50.46
6532;BME280;3299;42.004;24.868;2023-08-17T07:26:22;98203.91;;;27.05;50.97
6532;BME280;3299;42.004;24.868;2023-08-17T07:28:48;98191.84;;;27.09;50.52
6532;BME280;3299;42.004;24.868;2023-08-17T07:31:14;98208.66;;;27.34;50.59
6532;BME280;3299;42.004;24.868;2023-08-17T07:33:39;98203.72;;;27.38;49.94
6532;BME280;3299;42.004;24.868;2023-08-17T07:36:05;98198.53;;;27.49;49.82
6532;BME280;3299;42.004;24.868;2023-08-17T07:38:30;98221.91;;;27.65;49.61
6532;BME280;3299;42.004;24.868;2023-08-17T07:40:56;98218.22;;;27.66;49.81
6532;BME280;3299;42.004;24.868;2023-08-17T07:43:22;98223.63;;;27.84;49.53
6532;BME280;3299;42.004;24.868;2023-08-17T07:45:57;98213.41;;;27.81;49.64
6532;BME280;3299;42.004;24.868;2023-08-17T07:48:22;98205.00;;;27.84;49.10
6532;BME280;3299;42.004;24.868;2023-08-17T07:50:49;98231.97;;;28.12;48.72
6532;BME280;3299;42.004;24.868;2023-08-17T07:53:15;98203.56;;;28.06;47.86
6532;BME280;3299;42.004;24.868;2023-08-17T07:55:41;98212.28;;;28.13;47.42
6532;BME280;3299;42.004;24.868;2023-08-17T07:58:06;98227.66;;;28.29;47.79
6532;BME280;3299;42.004;24.868;2023-08-17T08:00:31;98220.88;;;28.33;47.37
6532;BME280;3299;42.004;24.868;2023-08-17T08:02:57;98207.19;;;28.30;47.58
6532;BME280;3299;42.004;24.868;2023-08-17T08:05:22;98217.13;;;28.41;47.34
6532;BME280;3299;42.004;24.868;2023-08-17T08:07:48;98221.34;;;28.48;47.03
6532;BME280;3299;42.004;24.868;2023-08-17T08:10:13;98212.31;;;28.49;46.75
6532;BME280;3299;42.004;24.868;2023-08-17T08:12:38;98215.72;;;28.56;46.54
6532;BME280;3299;42.004;24.868;2023-08-17T08:15:04;98199.75;;;28.56;46.08
6532;BME280;3299;42.004;24.868;2023-08-17T08:17:30;98192.56;;;28.57;46.34
6532;BME280;3299;42.004;24.868;2023-08-17T08:19:56;98209.63;;;28.67;46.48
6532;BME280;3299;42.004;24.868;2023-08-17T08:22:23;98210.56;;;28.73;46.06
6532;BME280;3299;42.004;24.868;2023-08-17T08:24:48;98190.56;;;28.70;46.31
6532;BME280;3299;42.004;24.868;2023-08-17T08:27:14;98190.78;;;28.69;46.47
6532;BME280;3299;42.004;24.868;2023-08-17T08:29:39;98194.53;;;28.79;46.26
6532;BME280;3299;42.004;24.868;2023-08-17T08:32:05;98211.09;;;28.99;45.85
6532;BME280;3299;42.004;24.868;2023-08-17T08:34:30;98203.47;;;29.03;45.38
6532;BME280;3299;42.004;24.868;2023-08-17T08:36:55;98187.97;;;28.93;45.57
6532;BME280;3299;42.004;24.868;2023-08-17T08:39:21;98182.16;;;29.03;45.19
6532;BME280;3299;42.004;24.868;2023-08-17T08:41:47;98210.28;;;29.28;45.30
6532;BME280;3299;42.004;24.868;2023-08-17T08:44:12;98212.25;;;29.33;45.40
6532;BME280;3299;42.004;24.868;2023-08-17T08:46:42;98194.13;;;29.23;45.25
6532;BME280;3299;42.004;24.868;2023-08-17T08:49:10;98211.56;;;29.37;45.20
6532;BME280;3299;42.004;24.868;2023-08-17T08:51:38;98210.63;;;29.43;45.09
6532;BME280;3299;42.004;24.868;2023-08-17T08:54:06;98182.56;;;29.29;45.24
6532;BME280;3299;42.004;24.868;2023-08-17T08:56:37;98191.03;;;29.38;45.67
6532;BME280;3299;42.004;24.868;2023-08-17T08:59:04;98211.28;;;29.57;44.78
6532;BME280;3299;42.004;24.868;2023-08-17T09:01:33;98181.31;;;29.43;44.34
6532;BME280;3299;42.004;24.868;2023-08-17T09:03:59;98194.44;;;29.56;44.12
6532;BME280;3299;42.004;24.868;2023-08-17T09:06:32;98194.22;;;29.58;44.73
6532;BME280;3299;42.004;24.868;2023-08-17T09:09:00;98164.25;;;29.33;44.89
6532;BME280;3299;42.004;24.868;2023-08-17T09:11:27;98180.31;;;29.56;44.68
6532;BME280;3299;42.004;24.868;2023-08-17T09:13:53;98194.69;;;29.66;45.32
6532;BME280;3299;42.004;24.868;2023-08-17T09:16:18;98170.56;;;29.61;44.29
6532;BME280;3299;42.004;24.868;2023-08-17T09:18:44;98197.13;;;29.79;44.06
6532;BME280;3299;42.004;24.868;2023-08-17T09:21:20;98170.13;;;29.87;43.22
6532;BME280;3299;42.004;24.868;2023-08-17T09:23:50;98153.16;;;29.82;43.18
6532;BME280;3299;42.004;24.868;2023-08-17T09:26:19;98159.44;;;29.87;43.84
6532;BME280;3299;42.004;24.868;2023-08-17T09:28:45;98186.69;;;30.01;44.07
6532;BME280;3299;42.004;24.868;2023-08-17T09:31:11;98198.53;;;30.05;42.43
6532;BME280;3299;42.004;24.868;2023-08-17T09:33:37;98194.00;;;30.17;41.80
6532;BME280;3299;42.004;24.868;2023-08-17T09:36:02;98170.69;;;30.12;41.28
6532;BME280;3299;42.004;24.868;2023-08-17T09:38:28;98184.03;;;30.12;41.82
6532;BME280;3299;42.004;24.868;2023-08-17T09:40:54;98180.00;;;30.10;41.74
6532;BME280;3299;42.004;24.868;2023-08-17T09:43:20;98175.47;;;30.10;41.89
6532;BME280;3299;42.004;24.868;2023-08-17T09:45:47;98194.19;;;30.38;42.43
6532;BME280;3299;42.004;24.868;2023-08-17T09:48:16;98171.56;;;30.41;41.97
6532;BME280;3299;42.004;24.868;2023-08-17T09:50:48;98179.88;;;30.56;41.67
6532;BME280;3299;42.004;24.868;2023-08-17T09:53:15;98170.94;;;30.50;41.44
6532;BME280;3299;42.004;24.868;2023-08-17T09:55:42;98188.09;;;30.77;40.17
6532;BME280;3299;42.004;24.868;2023-08-17T09:58:08;98194.09;;;30.84;40.40
6532;BME280;3299;42.004;24.868;2023-08-17T10:00:34;98178.31;;;30.83;40.28
6532;BME280;3299;42.004;24.868;2023-08-17T10:03:02;98159.25;;;30.79;39.52
6532;BME280;3299;42.004;24.868;2023-08-17T10:05:31;98183.94;;;30.98;39.62
6532;BME280;3299;42.004;24.868;2023-08-17T10:08:01;98163.84;;;30.95;39.06
6532;BME280;3299;42.004;24.868;2023-08-17T10:10:29;98180.78;;;31.01;39.49
6532;BME280;3299;42.004;24.868;2023-08-17T10:15:37;98148.84;;;31.22;39.65
6532;BME280;3299;42.004;24.868;2023-08-17T10:18:31;98140.72;;;31.34;39.19
6532;BME280;3299;42.004;24.868;2023-08-17T10:21:01;98163.44;;;31.64;39.32
6532;BME280;3299;42.004;24.868;2023-08-17T10:23:27;98137.66;;;31.58;38.70
6532;BME280;3299;42.004;24.868;2023-08-17T10:25:53;98139.03;;;31.77;37.54
6532;BME280;3299;42.004;24.868;2023-08-17T10:28:22;98132.28;;;31.91;37.69
6532;BME280;3299;42.004;24.868;2023-08-17T10:30:48;98144.78;;;32.07;37.87
6532;BME280;3299;42.004;24.868;2023-08-17T10:33:14;98161.06;;;32.22;37.67
6532;BME280;3299;42.004;24.868;2023-08-17T10:35:40;98140.66;;;32.16;37.49
6532;BME280;3299;42.004;24.868;2023-08-17T10:38:07;98145.53;;;32.19;37.58
6532;BME280;3299;42.004;24.868;2023-08-17T10:40:37;98160.50;;;32.37;37.38
6532;BME280;3299;42.004;24.868;2023-08-17T10:43:03;98152.38;;;32.53;36.16
6532;BME280;3299;42.004;24.868;2023-08-17T10:45:30;98123.72;;;32.54;36.34
6532;BME280;3299;42.004;24.868;2023-08-17T10:50:59;98112.78;;;32.82;35.47
6532;BME280;3299;42.004;24.868;2023-08-17T10:53:25;98138.63;;;33.19;34.67
6532;BME280;3299;42.004;24.868;2023-08-17T10:55:57;98123.88;;;33.22;34.71
6532;BME280;3299;42.004;24.868;2023-08-17T10:58:22;98116.47;;;33.02;34.30
6532;BME280;3299;42.004;24.868;2023-08-17T11:00:54;98108.81;;;33.16;34.73
6532;BME280;3299;42.004;24.868;2023-08-17T11:03:21;98141.34;;;33.56;35.10
6532;BME280;3299;42.004;24.868;2023-08-17T11:05:48;98133.06;;;33.62;33.03
6532;BME280;3299;42.004;24.868;2023-08-17T11:08:56;98133.78;;;33.84;32.90
6532;BME280;3299;42.004;24.868;2023-08-17T11:11:22;98094.28;;;33.80;33.07
6532;BME280;3299;42.004;24.868;2023-08-17T11:13:48;98100.28;;;33.97;32.21
6532;BME280;3299;42.004;24.868;2023-08-17T11:16:16;98100.31;;;34.07;31.71
6532;BME280;3299;42.004;24.868;2023-08-17T11:18:42;98129.50;;;34.35;32.45
6532;BME280;3299;42.004;24.868;2023-08-17T11:21:08;98088.09;;;34.31;32.03
6532;BME280;3299;42.004;24.868;2023-08-17T11:23:36;98116.97;;;34.65;31.70
6532;BME280;3299;42.004;24.868;2023-08-17T11:26:02;98094.34;;;34.46;30.96
6532;BME280;3299;42.004;24.868;2023-08-17T11:28:30;98088.03;;;34.16;30.63
6532;BME280;3299;42.004;24.868;2023-08-17T11:31:05;98100.28;;;34.58;31.42
6532;BME280;3299;42.004;24.868;2023-08-17T11:33:32;98102.50;;;34.86;30.12
6532;BME280;3299;42.004;24.868;2023-08-17T11:36:00;98101.44;;;35.02;29.22
6532;BME280;3299;42.004;24.868;2023-08-17T11:38:29;98094.16;;;35.13;28.67
6532;BME280;3299;42.004;24.868;2023-08-17T11:40:57;98100.34;;;35.03;29.75
6532;BME280;3299;42.004;24.868;2023-08-17T11:43:22;98108.97;;;34.90;27.47
6532;BME280;3299;42.004;24.868;2023-08-17T11:45:48;98097.66;;;34.83;27.96
6532;BME280;3299;42.004;24.868;2023-08-17T11:48:14;98118.94;;;35.15;27.20
6532;BME280;3299;42.004;24.868;2023-08-17T11:50:42;98102.53;;;35.11;26.78
6532;BME280;3299;42.004;24.868;2023-08-17T11:53:08;98079.38;;;34.90;27.29
6532;BME280;3299;42.004;24.868;2023-08-17T11:55:33;98101.97;;;35.09;27.16
6532;BME280;3299;42.004;24.868;2023-08-17T11:57:58;98105.22;;;35.16;27.24
6532;BME280;3299;42.004;24.868;2023-08-17T12:00:24;98076.16;;;35.13;26.89
6532;BME280;3299;42.004;24.868;2023-08-17T12:02:52;98071.84;;;35.12;26.96
6532;BME280;3299;42.004;24.868;2023-08-17T12:05:21;98063.78;;;35.17;27.50
6532;BME280;3299;42.004;24.868;2023-08-17T12:07:49;98074.03;;;35.30;27.05
6532;BME280;3299;42.004;24.868;2023-08-17T12:10:14;98096.59;;;35.54;27.10
6532;BME280;3299;42.004;24.868;2023-08-17T12:12:40;98083.16;;;35.74;27.25
6532;BME280;3299;42.004;24.868;2023-08-17T12:15:06;98087.44;;;35.65;26.92
6532;BME280;3299;42.004;24.868;2023-08-17T12:17:31;98056.47;;;35.53;26.37
6532;BME280;3299;42.004;24.868;2023-08-17T12:19:58;98082.28;;;35.89;26.54
6532;BME280;3299;42.004;24.868;2023-08-17T12:22:25;98096.31;;;35.71;26.42
6532;BME280;3299;42.004;24.868;2023-08-17T12:24:53;98049.47;;;35.62;26.15
6532;BME280;3299;42.004;24.868;2023-08-17T12:27:22;98070.78;;;35.48;26.66
6532;BME280;3299;42.004;24.868;2023-08-17T12:29:50;98057.03;;;35.55;26.67
6532;BME280;3299;42.004;24.868;2023-08-17T12:32:17;98057.25;;;35.78;27.20
6532;BME280;3299;42.004;24.868;2023-08-17T12:34:43;98032.22;;;35.83;26.69
6532;BME280;3299;42.004;24.868;2023-08-17T12:37:09;98038.38;;;35.83;26.66
6532;BME280;3299;42.004;24.868;2023-08-17T12:39:35;98032.22;;;35.78;26.55
6532;BME280;3299;42.004;24.868;2023-08-17T12:42:01;98050.69;;;36.09;27.36
6532;BME280;3299;42.004;24.868;2023-08-17T12:44:27;98032.94;;;36.03;26.30
6532;BME280;3299;42.004;24.868;2023-08-17T12:46:52;98064.56;;;36.41;26.75
6532;BME280;3299;42.004;24.868;2023-08-17T12:49:17;98031.22;;;36.27;26.10
6532;BME280;3299;42.004;24.868;2023-08-17T12:51:43;98046.47;;;36.47;26.42
6532;BME280;3299;42.004;24.868;2023-08-17T12:54:08;98040.94;;;36.23;26.40
6532;BME280;3299;42.004;24.868;2023-08-17T12:56:34;98045.75;;;36.26;26.35
6532;BME280;3299;42.004;24.868;2023-08-17T12:58:59;98036.88;;;36.26;26.78
6532;BME280;3299;42.004;24.868;2023-08-17T13:01:25;98029.47;;;36.46;26.74
6532;BME280;3299;42.004;24.868;2023-08-17T13:03:50;98056.38;;;36.56;27.54
6532;BME280;3299;42.004;24.868;2023-08-17T13:06:15;98034.84;;;36.51;27.71
6532;BME280;3299;42.004;24.868;2023-08-17T13:08:41;98037.78;;;36.55;27.84
6532;BME280;3299;42.004;24.868;2023-08-17T13:11:06;98025.59;;;36.67;27.96
6532;BME280;3299;42.004;24.868;2023-08-17T13:13:31;98057.63;;;37.07;28.41